This is the latest recevied weather packets stored in our database for station/object W6ORV. If no packets are shown the sender has not sent any weather packets the latest 10 day(s).
| Time | Temp. | Humidity | Pressure | Rain* | Wind** | Luminosity | Snow |
|---|---|---|---|---|---|---|---|
| 1778185218 | 32.78° C | 36% | 4300.8 hPa | 0 mm | - | 778 W/m² | - |
| 1778184914 | 31.11° C | 35% | 4300.8 hPa | 0 mm | - | 794 W/m² | - |
| 1778184610 | 32.22° C | 37% | 4301 hPa | 0 mm | - | 797 W/m² | - |
| 1778184306 | 32.22° C | 36% | 4300.8 hPa | 0 mm | - | 785 W/m² | - |
| 1778184001 | 30° C | 38% | 4300.9 hPa | 0 mm | - | 780 W/m² | - |
| 1778183699 | 30° C | 41% | 4301.1 hPa | 0 mm | - | 776 W/m² | - |
| 1778183397 | 31.67° C | 38% | 4301 hPa | 0 mm | - | 792 W/m² | - |
| 1778183093 | 31.67° C | 36% | 4301.2 hPa | 0 mm | - | 803 W/m² | - |
| 1778182789 | 31.11° C | 39% | 4301.1 hPa | 0 mm | - | 813 W/m² | - |
| 1778182486 | 28.89° C | 41% | 4301.4 hPa | 0 mm | - | 809 W/m² | - |
| 1778182183 | 30.56° C | 42% | 4301.3 hPa | 0 mm | - | 807 W/m² | - |
| 1778181879 | 29.44° C | 42% | 4301.3 hPa | 0 mm | - | 808 W/m² | - |
| 1778181576 | 28.33° C | 44% | 4301.4 hPa | 0 mm | - | 782 W/m² | - |
| 1778181272 | 28.33° C | 43% | 4301.5 hPa | 0 mm | - | 785 W/m² | - |
| 1778180968 | 28.89° C | 45% | 4301.8 hPa | 0 mm | - | 804 W/m² | - |
| 1778180666 | 29.44° C | 41% | 4301.7 hPa | 0 mm | - | 817 W/m² | - |
| 1778180365 | 28.33° C | 45% | 4301.9 hPa | 0 mm | - | 774 W/m² | - |
| 1778180062 | 27.78° C | 43% | 4301.5 hPa | 0 mm | - | 770 W/m² | - |
| 1778179759 | 28.33° C | 46% | 4301.9 hPa | 0 mm | - | 793 W/m² | - |
| 1778179457 | 28.89° C | 41% | 4301.8 hPa | 0 mm | - | 838 W/m² | - |
| 1778179154 | 28.89° C | 44% | 4302 hPa | 0 mm | - | 830 W/m² | - |
| 1778178851 | 26.67° C | 47% | 4302.1 hPa | 0 mm | - | 834 W/m² | - |
| 1778178548 | 28.33° C | 45% | 4302 hPa | 0 mm | - | 841 W/m² | - |
| 1778178243 | 27.22° C | 45% | 4302.1 hPa | 0 mm | - | 854 W/m² | - |
| 1778177940 | 26.67° C | 47% | 4301.8 hPa | 0 mm | - | 853 W/m² | - |
* Rain latest hour (hover to see other rain measurements)
** Current wind speed in m/s (hover to see current wind gust speed)